sensor_id;sensor_type;location;lat;lon;timestamp;temperature;humidity
56044;DHT22;41912;51.022;3.664;2022-08-19T00:01:42;21.10;97.70
56044;DHT22;41912;51.022;3.664;2022-08-19T00:04:11;21.10;97.60
56044;DHT22;41912;51.022;3.664;2022-08-19T00:06:39;21.10;97.70
56044;DHT22;41912;51.022;3.664;2022-08-19T00:09:06;21.10;97.60
56044;DHT22;41912;51.022;3.664;2022-08-19T00:11:32;21.00;97.70
56044;DHT22;41912;51.022;3.664;2022-08-19T00:14:04;21.00;97.60
56044;DHT22;41912;51.022;3.664;2022-08-19T00:16:30;21.00;97.60
56044;DHT22;41912;51.022;3.664;2022-08-19T00:18:56;21.00;97.60
56044;DHT22;41912;51.022;3.664;2022-08-19T00:21:24;20.90;97.40
56044;DHT22;41912;51.022;3.664;2022-08-19T00:23:52;20.90;97.50
56044;DHT22;41912;51.022;3.664;2022-08-19T00:26:18;20.90;97.60
56044;DHT22;41912;51.022;3.664;2022-08-19T00:28:44;20.90;97.60
56044;DHT22;41912;51.022;3.664;2022-08-19T00:31:10;20.80;97.50
56044;DHT22;41912;51.022;3.664;2022-08-19T00:33:36;20.80;97.50
56044;DHT22;41912;51.022;3.664;2022-08-19T00:36:05;20.80;97.40
56044;DHT22;41912;51.022;3.664;2022-08-19T00:38:32;20.70;97.40
56044;DHT22;41912;51.022;3.664;2022-08-19T00:40:58;20.70;97.60
56044;DHT22;41912;51.022;3.664;2022-08-19T00:43:26;20.70;97.60
56044;DHT22;41912;51.022;3.664;2022-08-19T00:45:53;20.60;97.70
56044;DHT22;41912;51.022;3.664;2022-08-19T00:48:19;20.60;97.80
56044;DHT22;41912;51.022;3.664;2022-08-19T00:50:48;20.60;97.80
56044;DHT22;41912;51.022;3.664;2022-08-19T00:53:16;20.60;97.80
56044;DHT22;41912;51.022;3.664;2022-08-19T00:55:49;20.60;97.80
56044;DHT22;41912;51.022;3.664;2022-08-19T00:58:18;20.60;97.80
56044;DHT22;41912;51.022;3.664;2022-08-19T01:00:46;20.50;97.70
56044;DHT22;41912;51.022;3.664;2022-08-19T01:03:15;20.50;97.60
56044;DHT22;41912;51.022;3.664;2022-08-19T01:05:42;20.50;97.70
56044;DHT22;41912;51.022;3.664;2022-08-19T01:08:09;20.40;97.70
56044;DHT22;41912;51.022;3.664;2022-08-19T01:10:43;20.40;97.90
56044;DHT22;41912;51.022;3.664;2022-08-19T01:13:10;20.40;97.90
56044;DHT22;41912;51.022;3.664;2022-08-19T01:15:43;20.40;97.90
56044;DHT22;41912;51.022;3.664;2022-08-19T01:18:13;20.40;97.80
56044;DHT22;41912;51.022;3.664;2022-08-19T01:20:40;20.30;97.90
56044;DHT22;41912;51.022;3.664;2022-08-19T01:23:06;20.30;97.90
56044;DHT22;41912;51.022;3.664;2022-08-19T01:28:07;20.20;98.00
56044;DHT22;41912;51.022;3.664;2022-08-19T01:30:34;20.20;98.10
56044;DHT22;41912;51.022;3.664;2022-08-19T01:33:01;20.20;98.00
56044;DHT22;41912;51.022;3.664;2022-08-19T01:35:29;20.20;97.90
56044;DHT22;41912;51.022;3.664;2022-08-19T01:38:02;20.20;98.00
56044;DHT22;41912;51.022;3.664;2022-08-19T01:40:33;20.10;97.90
56044;DHT22;41912;51.022;3.664;2022-08-19T01:43:00;20.10;97.80
56044;DHT22;41912;51.022;3.664;2022-08-19T01:45:29;20.10;97.70
56044;DHT22;41912;51.022;3.664;2022-08-19T01:47:56;20.10;97.80
56044;DHT22;41912;51.022;3.664;2022-08-19T01:50:22;20.00;97.80
56044;DHT22;41912;51.022;3.664;2022-08-19T01:52:48;20.00;97.80
56044;DHT22;41912;51.022;3.664;2022-08-19T01:55:16;20.00;97.90
56044;DHT22;41912;51.022;3.664;2022-08-19T01:57:45;20.00;97.90
56044;DHT22;41912;51.022;3.664;2022-08-19T02:00:13;20.00;97.90
56044;DHT22;41912;51.022;3.664;2022-08-19T02:02:41;20.00;97.90
56044;DHT22;41912;51.022;3.664;2022-08-19T02:05:08;19.90;98.00
56044;DHT22;41912;51.022;3.664;2022-08-19T02:07:34;19.90;98.00
56044;DHT22;41912;51.022;3.664;2022-08-19T02:10:05;19.90;98.00
56044;DHT22;41912;51.022;3.664;2022-08-19T02:12:31;19.90;98.10
56044;DHT22;41912;51.022;3.664;2022-08-19T02:14:58;19.80;98.10
56044;DHT22;41912;51.022;3.664;2022-08-19T02:17:23;19.80;98.30
56044;DHT22;41912;51.022;3.664;2022-08-19T02:19:49;19.80;98.30
56044;DHT22;41912;51.022;3.664;2022-08-19T02:22:15;19.80;98.30
56044;DHT22;41912;51.022;3.664;2022-08-19T02:24:41;19.80;98.30
56044;DHT22;41912;51.022;3.664;2022-08-19T02:27:06;19.80;98.40
56044;DHT22;41912;51.022;3.664;2022-08-19T02:29:32;19.80;98.40
56044;DHT22;41912;51.022;3.664;2022-08-19T02:31:57;19.80;98.30
56044;DHT22;41912;51.022;3.664;2022-08-19T02:34:23;19.80;98.30
56044;DHT22;41912;51.022;3.664;2022-08-19T02:36:51;19.80;98.30
56044;DHT22;41912;51.022;3.664;2022-08-19T02:39:18;19.70;98.30
56044;DHT22;41912;51.022;3.664;2022-08-19T02:41:43;19.70;98.30
56044;DHT22;41912;51.022;3.664;2022-08-19T02:44:09;19.60;98.40
56044;DHT22;41912;51.022;3.664;2022-08-19T02:46:35;19.60;98.40
56044;DHT22;41912;51.022;3.664;2022-08-19T02:49:04;19.60;98.40
56044;DHT22;41912;51.022;3.664;2022-08-19T02:51:36;19.60;98.50
56044;DHT22;41912;51.022;3.664;2022-08-19T02:54:04;19.60;98.50
56044;DHT22;41912;51.022;3.664;2022-08-19T02:56:30;19.60;98.40
56044;DHT22;41912;51.022;3.664;2022-08-19T02:58:56;19.50;98.80
56044;DHT22;41912;51.022;3.664;2022-08-19T03:01:30;19.50;98.60
56044;DHT22;41912;51.022;3.664;2022-08-19T03:03:58;19.50;98.60
56044;DHT22;41912;51.022;3.664;2022-08-19T03:06:25;19.50;98.70
56044;DHT22;41912;51.022;3.664;2022-08-19T03:08:51;19.50;98.80
56044;DHT22;41912;51.022;3.664;2022-08-19T03:11:23;19.50;98.80
56044;DHT22;41912;51.022;3.664;2022-08-19T03:13:50;19.50;98.80
56044;DHT22;41912;51.022;3.664;2022-08-19T03:16:17;19.50;99.00
56044;DHT22;41912;51.022;3.664;2022-08-19T03:18:43;19.50;99.00
56044;DHT22;41912;51.022;3.664;2022-08-19T03:21:09;19.50;99.10
56044;DHT22;41912;51.022;3.664;2022-08-19T03:23:35;19.40;99.10
56044;DHT22;41912;51.022;3.664;2022-08-19T03:26:05;19.40;99.20
56044;DHT22;41912;51.022;3.664;2022-08-19T03:28:32;19.40;99.20
56044;DHT22;41912;51.022;3.664;2022-08-19T03:31:01;19.40;99.30
56044;DHT22;41912;51.022;3.664;2022-08-19T03:33:28;19.40;99.40
56044;DHT22;41912;51.022;3.664;2022-08-19T03:36:12;19.40;99.40
56044;DHT22;41912;51.022;3.664;2022-08-19T03:38:42;19.40;99.50
56044;DHT22;41912;51.022;3.664;2022-08-19T03:41:18;19.40;99.60
56044;DHT22;41912;51.022;3.664;2022-08-19T03:43:44;19.40;99.60
56044;DHT22;41912;51.022;3.664;2022-08-19T03:46:23;19.40;99.60
56044;DHT22;41912;51.022;3.664;2022-08-19T03:48:52;19.40;99.60
56044;DHT22;41912;51.022;3.664;2022-08-19T03:51:32;19.40;99.60
56044;DHT22;41912;51.022;3.664;2022-08-19T03:54:00;19.40;99.60
56044;DHT22;41912;51.022;3.664;2022-08-19T03:56:27;19.40;99.60
56044;DHT22;41912;51.022;3.664;2022-08-19T03:58:54;19.30;99.50
56044;DHT22;41912;51.022;3.664;2022-08-19T04:01:22;19.40;99.50
56044;DHT22;41912;51.022;3.664;2022-08-19T04:03:48;19.30;99.40
56044;DHT22;41912;51.022;3.664;2022-08-19T04:06:19;19.30;99.40
56044;DHT22;41912;51.022;3.664;2022-08-19T04:08:49;19.30;99.40
56044;DHT22;41912;51.022;3.664;2022-08-19T04:11:25;19.30;99.40
56044;DHT22;41912;51.022;3.664;2022-08-19T04:13:53;19.30;99.40
56044;DHT22;41912;51.022;3.664;2022-08-19T04:16:26;19.30;99.30
56044;DHT22;41912;51.022;3.664;2022-08-19T04:18:54;19.20;99.60
56044;DHT22;41912;51.022;3.664;2022-08-19T04:21:23;19.20;99.30
56044;DHT22;41912;51.022;3.664;2022-08-19T04:23:49;19.20;99.30
56044;DHT22;41912;51.022;3.664;2022-08-19T04:26:16;19.20;99.40
56044;DHT22;41912;51.022;3.664;2022-08-19T04:28:43;19.20;99.40
56044;DHT22;41912;51.022;3.664;2022-08-19T04:31:18;19.20;99.40
56044;DHT22;41912;51.022;3.664;2022-08-19T04:33:44;19.20;99.50
56044;DHT22;41912;51.022;3.664;2022-08-19T04:36:24;19.10;99.50
56044;DHT22;41912;51.022;3.664;2022-08-19T04:38:52;19.10;99.50
56044;DHT22;41912;51.022;3.664;2022-08-19T04:41:18;19.10;99.60
56044;DHT22;41912;51.022;3.664;2022-08-19T04:44:03;19.10;99.60
56044;DHT22;41912;51.022;3.664;2022-08-19T04:46:29;19.10;99.60
56044;DHT22;41912;51.022;3.664;2022-08-19T04:48:58;19.10;99.50
56044;DHT22;41912;51.022;3.664;2022-08-19T04:51:25;19.10;99.50
56044;DHT22;41912;51.022;3.664;2022-08-19T04:53:51;19.10;99.60
56044;DHT22;41912;51.022;3.664;2022-08-19T04:56:18;19.10;99.70
56044;DHT22;41912;51.022;3.664;2022-08-19T04:58:46;19.10;99.80
56044;DHT22;41912;51.022;3.664;2022-08-19T05:01:14;19.10;99.90
56044;DHT22;41912;51.022;3.664;2022-08-19T05:03:42;19.10;99.90
56044;DHT22;41912;51.022;3.664;2022-08-19T05:06:10;19.10;99.90
56044;DHT22;41912;51.022;3.664;2022-08-19T05:08:39;19.10;99.90
56044;DHT22;41912;51.022;3.664;2022-08-19T05:11:14;19.10;99.90
56044;DHT22;41912;51.022;3.664;2022-08-19T05:13:40;19.10;99.90
56044;DHT22;41912;51.022;3.664;2022-08-19T05:16:06;19.10;99.90
56044;DHT22;41912;51.022;3.664;2022-08-19T05:18:32;19.00;99.90
56044;DHT22;41912;51.022;3.664;2022-08-19T05:21:18;19.10;99.90
56044;DHT22;41912;51.022;3.664;2022-08-19T05:24:04;19.10;99.90
56044;DHT22;41912;51.022;3.664;2022-08-19T05:26:33;19.10;99.90
56044;DHT22;41912;51.022;3.664;2022-08-19T05:28:59;19.20;99.90
56044;DHT22;41912;51.022;3.664;2022-08-19T05:31:25;19.10;99.90
56044;DHT22;41912;51.022;3.664;2022-08-19T05:33:50;19.20;99.90
56044;DHT22;41912;51.022;3.664;2022-08-19T05:36:16;19.20;99.90
56044;DHT22;41912;51.022;3.664;2022-08-19T05:38:41;19.20;99.90
56044;DHT22;41912;51.022;3.664;2022-08-19T05:41:11;19.30;99.90
56044;DHT22;41912;51.022;3.664;2022-08-19T05:43:37;19.30;99.90
56044;DHT22;41912;51.022;3.664;2022-08-19T05:46:04;19.30;99.90
56044;DHT22;41912;51.022;3.664;2022-08-19T05:48:37;19.30;99.90
56044;DHT22;41912;51.022;3.664;2022-08-19T05:51:07;19.40;99.90
56044;DHT22;41912;51.022;3.664;2022-08-19T05:53:34;19.40;99.90
56044;DHT22;41912;51.022;3.664;2022-08-19T05:56:05;19.40;99.90
56044;DHT22;41912;51.022;3.664;2022-08-19T05:58:32;19.40;99.90
56044;DHT22;41912;51.022;3.664;2022-08-19T06:00:58;19.50;99.90
56044;DHT22;41912;51.022;3.664;2022-08-19T06:03:30;19.50;99.90
56044;DHT22;41912;51.022;3.664;2022-08-19T06:05:56;19.60;99.90
56044;DHT22;41912;51.022;3.664;2022-08-19T06:08:21;19.60;99.90
56044;DHT22;41912;51.022;3.664;2022-08-19T06:10:47;19.60;99.90
56044;DHT22;41912;51.022;3.664;2022-08-19T06:13:13;19.70;99.90
56044;DHT22;41912;51.022;3.664;2022-08-19T06:15:39;19.70;99.90
56044;DHT22;41912;51.022;3.664;2022-08-19T06:18:06;19.70;99.90
56044;DHT22;41912;51.022;3.664;2022-08-19T06:20:32;19.70;99.90
56044;DHT22;41912;51.022;3.664;2022-08-19T06:22:57;19.80;99.90
56044;DHT22;41912;51.022;3.664;2022-08-19T06:25:24;19.80;99.90
56044;DHT22;41912;51.022;3.664;2022-08-19T06:27:49;19.90;99.90
56044;DHT22;41912;51.022;3.664;2022-08-19T06:30:15;20.00;99.90
56044;DHT22;41912;51.022;3.664;2022-08-19T06:32:41;20.00;99.90
56044;DHT22;41912;51.022;3.664;2022-08-19T06:35:07;20.00;99.90
56044;DHT22;41912;51.022;3.664;2022-08-19T06:37:33;20.10;99.90
56044;DHT22;41912;51.022;3.664;2022-08-19T06:39:58;20.10;99.90
56044;DHT22;41912;51.022;3.664;2022-08-19T06:42:24;20.10;99.90
56044;DHT22;41912;51.022;3.664;2022-08-19T06:44:50;20.20;99.90
56044;DHT22;41912;51.022;3.664;2022-08-19T06:47:18;20.20;99.90
56044;DHT22;41912;51.022;3.664;2022-08-19T06:49:45;20.20;99.90
56044;DHT22;41912;51.022;3.664;2022-08-19T06:52:12;20.30;99.90
56044;DHT22;41912;51.022;3.664;2022-08-19T06:54:39;20.30;99.90
56044;DHT22;41912;51.022;3.664;2022-08-19T06:57:06;20.40;99.90
56044;DHT22;41912;51.022;3.664;2022-08-19T06:59:33;20.40;99.90
56044;DHT22;41912;51.022;3.664;2022-08-19T07:02:02;20.40;99.90
56044;DHT22;41912;51.022;3.664;2022-08-19T07:04:31;20.40;99.90
56044;DHT22;41912;51.022;3.664;2022-08-19T07:07:03;20.50;99.90
56044;DHT22;41912;51.022;3.664;2022-08-19T07:09:31;20.50;99.90
56044;DHT22;41912;51.022;3.664;2022-08-19T07:11:57;20.50;99.90
56044;DHT22;41912;51.022;3.664;2022-08-19T07:14:25;20.50;99.90
56044;DHT22;41912;51.022;3.664;2022-08-19T07:16:53;20.50;99.90
56044;DHT22;41912;51.022;3.664;2022-08-19T07:19:21;20.60;99.90
56044;DHT22;41912;51.022;3.664;2022-08-19T07:21:49;20.60;99.90
56044;DHT22;41912;51.022;3.664;2022-08-19T07:24:18;20.70;99.90
56044;DHT22;41912;51.022;3.664;2022-08-19T07:26:45;20.70;99.90
56044;DHT22;41912;51.022;3.664;2022-08-19T07:29:11;20.70;99.90
56044;DHT22;41912;51.022;3.664;2022-08-19T07:31:38;20.80;99.90
56044;DHT22;41912;51.022;3.664;2022-08-19T07:34:06;20.80;99.90
56044;DHT22;41912;51.022;3.664;2022-08-19T07:36:34;20.80;99.90
56044;DHT22;41912;51.022;3.664;2022-08-19T07:39:03;20.90;99.90
56044;DHT22;41912;51.022;3.664;2022-08-19T07:41:30;20.90;99.90
56044;DHT22;41912;51.022;3.664;2022-08-19T07:43:57;20.90;99.90
56044;DHT22;41912;51.022;3.664;2022-08-19T07:46:23;20.90;99.90
56044;DHT22;41912;51.022;3.664;2022-08-19T07:48:49;20.90;99.90
56044;DHT22;41912;51.022;3.664;2022-08-19T07:51:18;21.00;99.90
56044;DHT22;41912;51.022;3.664;2022-08-19T07:53:44;21.00;99.90
56044;DHT22;41912;51.022;3.664;2022-08-19T07:56:12;21.00;99.90
56044;DHT22;41912;51.022;3.664;2022-08-19T07:58:40;21.00;99.90
56044;DHT22;41912;51.022;3.664;2022-08-19T08:01:07;21.00;99.90
56044;DHT22;41912;51.022;3.664;2022-08-19T08:03:36;21.00;99.90
56044;DHT22;41912;51.022;3.664;2022-08-19T08:06:22;21.10;99.90
56044;DHT22;41912;51.022;3.664;2022-08-19T08:09:06;21.10;99.90
56044;DHT22;41912;51.022;3.664;2022-08-19T08:11:56;21.10;99.90
56044;DHT22;41912;51.022;3.664;2022-08-19T08:14:35;21.10;99.90
56044;DHT22;41912;51.022;3.664;2022-08-19T08:17:03;21.10;99.90
56044;DHT22;41912;51.022;3.664;2022-08-19T08:19:29;21.20;99.90
56044;DHT22;41912;51.022;3.664;2022-08-19T08:21:57;21.20;99.90
56044;DHT22;41912;51.022;3.664;2022-08-19T08:24:24;21.20;99.90
56044;DHT22;41912;51.022;3.664;2022-08-19T08:26:50;21.20;99.90
56044;DHT22;41912;51.022;3.664;2022-08-19T08:29:16;21.20;99.90
56044;DHT22;41912;51.022;3.664;2022-08-19T08:31:43;21.30;99.90
56044;DHT22;41912;51.022;3.664;2022-08-19T08:34:10;21.30;99.90
56044;DHT22;41912;51.022;3.664;2022-08-19T08:36:42;21.30;99.90
56044;DHT22;41912;51.022;3.664;2022-08-19T08:39:13;21.40;99.90
56044;DHT22;41912;51.022;3.664;2022-08-19T08:45:03;21.40;99.90
56044;DHT22;41912;51.022;3.664;2022-08-19T08:47:35;21.40;99.90
56044;DHT22;41912;51.022;3.664;2022-08-19T08:50:05;21.50;99.90
56044;DHT22;41912;51.022;3.664;2022-08-19T08:52:39;21.50;99.90
56044;DHT22;41912;51.022;3.664;2022-08-19T08:55:21;21.60;99.90
56044;DHT22;41912;51.022;3.664;2022-08-19T09:00:19;21.60;99.90
56044;DHT22;41912;51.022;3.664;2022-08-19T09:02:46;21.70;99.90
56044;DHT22;41912;51.022;3.664;2022-08-19T09:05:12;21.70;99.90
56044;DHT22;41912;51.022;3.664;2022-08-19T09:10:49;21.80;99.90
56044;DHT22;41912;51.022;3.664;2022-08-19T09:16:07;21.80;99.90
56044;DHT22;41912;51.022;3.664;2022-08-19T09:18:46;21.90;99.90
56044;DHT22;41912;51.022;3.664;2022-08-19T09:21:14;21.90;99.90
56044;DHT22;41912;51.022;3.664;2022-08-19T09:23:40;22.00;99.90
56044;DHT22;41912;51.022;3.664;2022-08-19T09:26:11;22.00;99.90
56044;DHT22;41912;51.022;3.664;2022-08-19T09:28:40;22.00;99.90
56044;DHT22;41912;51.022;3.664;2022-08-19T09:31:29;22.10;99.90
56044;DHT22;41912;51.022;3.664;2022-08-19T09:33:55;22.20;99.90
56044;DHT22;41912;51.022;3.664;2022-08-19T09:36:26;22.20;99.90
56044;DHT22;41912;51.022;3.664;2022-08-19T09:38:52;22.30;99.90
56044;DHT22;41912;51.022;3.664;2022-08-19T09:41:20;22.40;99.90
56044;DHT22;41912;51.022;3.664;2022-08-19T09:43:49;22.40;99.90
56044;DHT22;41912;51.022;3.664;2022-08-19T09:46:17;22.50;99.90
56044;DHT22;41912;51.022;3.664;2022-08-19T09:48:46;22.50;99.90
56044;DHT22;41912;51.022;3.664;2022-08-19T09:51:15;22.60;99.90
56044;DHT22;41912;51.022;3.664;2022-08-19T09:53:43;22.60;99.90
56044;DHT22;41912;51.022;3.664;2022-08-19T09:56:09;22.60;99.90
56044;DHT22;41912;51.022;3.664;2022-08-19T09:58:36;22.60;99.80
56044;DHT22;41912;51.022;3.664;2022-08-19T10:01:02;22.60;99.60
56044;DHT22;41912;51.022;3.664;2022-08-19T10:03:29;22.60;99.70
56044;DHT22;41912;51.022;3.664;2022-08-19T10:05:56;22.60;99.70
56044;DHT22;41912;51.022;3.664;2022-08-19T10:08:27;22.70;99.60
56044;DHT22;41912;51.022;3.664;2022-08-19T10:10:54;22.70;99.60
56044;DHT22;41912;51.022;3.664;2022-08-19T10:13:28;22.70;99.60
56044;DHT22;41912;51.022;3.664;2022-08-19T10:16:01;22.80;99.70
56044;DHT22;41912;51.022;3.664;2022-08-19T10:18:27;22.80;99.70
56044;DHT22;41912;51.022;3.664;2022-08-19T10:21:07;22.90;99.70
56044;DHT22;41912;51.022;3.664;2022-08-19T10:23:35;22.90;99.50
56044;DHT22;41912;51.022;3.664;2022-08-19T10:26:02;22.90;99.40
56044;DHT22;41912;51.022;3.664;2022-08-19T10:28:29;23.00;99.10
56044;DHT22;41912;51.022;3.664;2022-08-19T10:30:55;23.00;99.20
56044;DHT22;41912;51.022;3.664;2022-08-19T10:33:21;23.00;99.00
56044;DHT22;41912;51.022;3.664;2022-08-19T10:35:46;23.00;98.90
56044;DHT22;41912;51.022;3.664;2022-08-19T10:38:12;23.00;98.80
56044;DHT22;41912;51.022;3.664;2022-08-19T10:40:38;23.10;98.90
56044;DHT22;41912;51.022;3.664;2022-08-19T10:43:04;23.10;98.80
56044;DHT22;41912;51.022;3.664;2022-08-19T10:45:30;23.10;98.60
56044;DHT22;41912;51.022;3.664;2022-08-19T10:47:56;23.10;98.50
56044;DHT22;41912;51.022;3.664;2022-08-19T10:50:21;23.20;98.50
56044;DHT22;41912;51.022;3.664;2022-08-19T10:53:07;23.30;98.60
56044;DHT22;41912;51.022;3.664;2022-08-19T10:55:36;23.30;98.60
56044;DHT22;41912;51.022;3.664;2022-08-19T10:58:21;23.30;98.20
56044;DHT22;41912;51.022;3.664;2022-08-19T11:00:56;23.30;97.90
56044;DHT22;41912;51.022;3.664;2022-08-19T11:03:24;23.30;98.00
56044;DHT22;41912;51.022;3.664;2022-08-19T11:06:05;23.30;97.90
56044;DHT22;41912;51.022;3.664;2022-08-19T11:08:32;23.40;97.80
56044;DHT22;41912;51.022;3.664;2022-08-19T11:11:01;23.40;97.90
56044;DHT22;41912;51.022;3.664;2022-08-19T11:13:33;23.40;98.20
56044;DHT22;41912;51.022;3.664;2022-08-19T11:16:07;23.40;98.10
56044;DHT22;41912;51.022;3.664;2022-08-19T11:18:38;23.40;98.00
56044;DHT22;41912;51.022;3.664;2022-08-19T11:21:08;23.40;98.00
56044;DHT22;41912;51.022;3.664;2022-08-19T11:23:34;23.40;97.90
56044;DHT22;41912;51.022;3.664;2022-08-19T11:26:00;23.40;97.90
56044;DHT22;41912;51.022;3.664;2022-08-19T11:28:26;23.50;97.90
56044;DHT22;41912;51.022;3.664;2022-08-19T11:30:52;23.50;98.00
56044;DHT22;41912;51.022;3.664;2022-08-19T11:33:17;23.50;97.90
56044;DHT22;41912;51.022;3.664;2022-08-19T11:35:44;23.50;97.90
56044;DHT22;41912;51.022;3.664;2022-08-19T11:38:10;23.50;97.70
56044;DHT22;41912;51.022;3.664;2022-08-19T11:40:37;23.50;97.60
56044;DHT22;41912;51.022;3.664;2022-08-19T11:43:03;23.60;98.00
56044;DHT22;41912;51.022;3.664;2022-08-19T11:45:30;23.60;97.60
56044;DHT22;41912;51.022;3.664;2022-08-19T11:47:56;23.60;97.60
56044;DHT22;41912;51.022;3.664;2022-08-19T11:50:23;23.60;97.40
56044;DHT22;41912;51.022;3.664;2022-08-19T11:52:49;23.70;97.30
56044;DHT22;41912;51.022;3.664;2022-08-19T11:55:15;23.70;97.20
56044;DHT22;41912;51.022;3.664;2022-08-19T11:57:41;23.70;97.10
56044;DHT22;41912;51.022;3.664;2022-08-19T12:00:09;23.70;97.10
56044;DHT22;41912;51.022;3.664;2022-08-19T12:02:37;23.80;97.50
56044;DHT22;41912;51.022;3.664;2022-08-19T12:05:03;23.80;97.40
56044;DHT22;41912;51.022;3.664;2022-08-19T12:07:29;23.80;97.30
56044;DHT22;41912;51.022;3.664;2022-08-19T12:09:58;23.90;97.40
56044;DHT22;41912;51.022;3.664;2022-08-19T12:12:24;23.90;97.30
56044;DHT22;41912;51.022;3.664;2022-08-19T12:14:50;24.00;97.30
56044;DHT22;41912;51.022;3.664;2022-08-19T12:17:23;24.00;97.10
56044;DHT22;41912;51.022;3.664;2022-08-19T12:19:48;24.00;97.10
56044;DHT22;41912;51.022;3.664;2022-08-19T12:22:14;24.00;96.90
56044;DHT22;41912;51.022;3.664;2022-08-19T12:24:39;24.00;96.80
56044;DHT22;41912;51.022;3.664;2022-08-19T12:27:05;24.00;96.70
56044;DHT22;41912;51.022;3.664;2022-08-19T12:29:31;24.10;96.70
56044;DHT22;41912;51.022;3.664;2022-08-19T12:31:58;24.00;96.50
56044;DHT22;41912;51.022;3.664;2022-08-19T12:34:28;24.10;96.60
56044;DHT22;41912;51.022;3.664;2022-08-19T12:36:56;24.00;96.60
56044;DHT22;41912;51.022;3.664;2022-08-19T12:39:22;24.10;96.70
56044;DHT22;41912;51.022;3.664;2022-08-19T12:41:48;24.10;96.70
56044;DHT22;41912;51.022;3.664;2022-08-19T12:44:14;24.20;96.70
56044;DHT22;41912;51.022;3.664;2022-08-19T12:46:40;24.20;96.80
56044;DHT22;41912;51.022;3.664;2022-08-19T12:49:05;24.30;97.00
56044;DHT22;41912;51.022;3.664;2022-08-19T12:51:31;24.30;96.80
56044;DHT22;41912;51.022;3.664;2022-08-19T12:53:57;24.40;96.60
56044;DHT22;41912;51.022;3.664;2022-08-19T12:56:22;24.50;96.30
56044;DHT22;41912;51.022;3.664;2022-08-19T12:58:48;24.50;96.20
56044;DHT22;41912;51.022;3.664;2022-08-19T13:01:15;24.60;96.50
56044;DHT22;41912;51.022;3.664;2022-08-19T13:03:42;24.60;96.30
56044;DHT22;41912;51.022;3.664;2022-08-19T13:06:09;24.60;96.30
56044;DHT22;41912;51.022;3.664;2022-08-19T13:08:35;24.60;96.20
56044;DHT22;41912;51.022;3.664;2022-08-19T13:11:30;24.60;96.20
56044;DHT22;41912;51.022;3.664;2022-08-19T13:14:00;24.50;96.40
56044;DHT22;41912;51.022;3.664;2022-08-19T13:16:26;24.40;97.30
56044;DHT22;41912;51.022;3.664;2022-08-19T13:18:53;24.20;97.50
56044;DHT22;41912;51.022;3.664;2022-08-19T13:21:21;24.00;98.10
56044;DHT22;41912;51.022;3.664;2022-08-19T13:23:48;23.80;98.40
56044;DHT22;41912;51.022;3.664;2022-08-19T13:26:15;23.70;98.70
56044;DHT22;41912;51.022;3.664;2022-08-19T13:28:41;23.60;98.90
56044;DHT22;41912;51.022;3.664;2022-08-19T13:31:29;23.50;99.00
56044;DHT22;41912;51.022;3.664;2022-08-19T13:34:15;23.50;99.50
56044;DHT22;41912;51.022;3.664;2022-08-19T13:36:41;23.50;99.90
56044;DHT22;41912;51.022;3.664;2022-08-19T13:39:07;23.50;99.90
56044;DHT22;41912;51.022;3.664;2022-08-19T13:41:34;23.60;99.90
56044;DHT22;41912;51.022;3.664;2022-08-19T13:44:00;23.60;99.90
56044;DHT22;41912;51.022;3.664;2022-08-19T13:46:27;23.60;99.90
56044;DHT22;41912;51.022;3.664;2022-08-19T13:48:55;23.70;99.90
56044;DHT22;41912;51.022;3.664;2022-08-19T13:51:21;23.70;99.90
56044;DHT22;41912;51.022;3.664;2022-08-19T13:53:47;23.80;99.90
56044;DHT22;41912;51.022;3.664;2022-08-19T13:56:17;23.80;99.90
56044;DHT22;41912;51.022;3.664;2022-08-19T13:58:44;23.90;99.90
56044;DHT22;41912;51.022;3.664;2022-08-19T14:01:10;23.90;99.90
56044;DHT22;41912;51.022;3.664;2022-08-19T14:03:37;23.90;99.90
56044;DHT22;41912;51.022;3.664;2022-08-19T14:06:03;23.80;99.90
56044;DHT22;41912;51.022;3.664;2022-08-19T14:08:29;23.90;99.90
56044;DHT22;41912;51.022;3.664;2022-08-19T14:10:57;23.90;99.90
56044;DHT22;41912;51.022;3.664;2022-08-19T14:13:23;24.10;99.90
56044;DHT22;41912;51.022;3.664;2022-08-19T14:15:50;24.20;99.90
56044;DHT22;41912;51.022;3.664;2022-08-19T14:18:17;24.20;99.90
56044;DHT22;41912;51.022;3.664;2022-08-19T14:20:43;24.20;99.90
56044;DHT22;41912;51.022;3.664;2022-08-19T14:23:10;24.30;99.90
56044;DHT22;41912;51.022;3.664;2022-08-19T14:25:37;24.30;99.90
56044;DHT22;41912;51.022;3.664;2022-08-19T14:28:03;24.40;99.90
56044;DHT22;41912;51.022;3.664;2022-08-19T14:30:33;24.40;99.90
56044;DHT22;41912;51.022;3.664;2022-08-19T14:33:01;24.40;99.90
56044;DHT22;41912;51.022;3.664;2022-08-19T14:35:29;24.50;99.90
56044;DHT22;41912;51.022;3.664;2022-08-19T14:37:59;24.50;99.90
56044;DHT22;41912;51.022;3.664;2022-08-19T14:40:28;24.60;99.90
56044;DHT22;41912;51.022;3.664;2022-08-19T14:43:00;24.80;99.90
56044;DHT22;41912;51.022;3.664;2022-08-19T14:45:27;25.00;99.90
56044;DHT22;41912;51.022;3.664;2022-08-19T14:47:54;25.10;99.60
56044;DHT22;41912;51.022;3.664;2022-08-19T14:50:20;25.30;99.10
56044;DHT22;41912;51.022;3.664;2022-08-19T14:52:47;25.30;99.20
56044;DHT22;41912;51.022;3.664;2022-08-19T14:55:14;25.40;99.10
56044;DHT22;41912;51.022;3.664;2022-08-19T14:57:43;25.50;98.80
56044;DHT22;41912;51.022;3.664;2022-08-19T15:00:10;25.60;98.30
56044;DHT22;41912;51.022;3.664;2022-08-19T15:02:40;25.50;97.80
56044;DHT22;41912;51.022;3.664;2022-08-19T15:05:06;25.50;97.40
56044;DHT22;41912;51.022;3.664;2022-08-19T15:07:32;25.50;97.90
56044;DHT22;41912;51.022;3.664;2022-08-19T15:09:58;25.60;98.00
56044;DHT22;41912;51.022;3.664;2022-08-19T15:12:24;25.70;97.50
56044;DHT22;41912;51.022;3.664;2022-08-19T15:14:49;25.60;97.50
56044;DHT22;41912;51.022;3.664;2022-08-19T15:17:17;25.60;97.60
56044;DHT22;41912;51.022;3.664;2022-08-19T15:19:43;25.60;97.70
56044;DHT22;41912;51.022;3.664;2022-08-19T15:22:08;25.70;97.70
56044;DHT22;41912;51.022;3.664;2022-08-19T15:24:35;25.70;97.90
56044;DHT22;41912;51.022;3.664;2022-08-19T15:27:01;25.70;98.20
56044;DHT22;41912;51.022;3.664;2022-08-19T15:29:27;25.70;98.10
56044;DHT22;41912;51.022;3.664;2022-08-19T15:31:53;25.60;98.10
56044;DHT22;41912;51.022;3.664;2022-08-19T15:34:23;25.60;98.60
56044;DHT22;41912;51.022;3.664;2022-08-19T15:36:53;25.60;98.70
56044;DHT22;41912;51.022;3.664;2022-08-19T15:39:19;25.60;98.70
56044;DHT22;41912;51.022;3.664;2022-08-19T15:41:45;25.50;99.10
56044;DHT22;41912;51.022;3.664;2022-08-19T15:44:14;25.50;99.50
56044;DHT22;41912;51.022;3.664;2022-08-19T15:46:42;25.50;99.40
56044;DHT22;41912;51.022;3.664;2022-08-19T15:49:10;25.40;99.60
56044;DHT22;41912;51.022;3.664;2022-08-19T15:51:38;25.40;99.90